Time;durP1;ratioP1;P1;durP2;ratioP2;P2;SDS_P1;SDS_P2;PMS_P1;PMS_P2;Temp;Humidity;BMP_temperature;BMP_pressure;BME280_temperature;BME280_humidity;BME280_pressure;Samples;Min_cycle;Max_cycle;Signal;HPM_P1;HPM_P2
2021/04/20 00:02:18;;;;;;;19.40;12.20;;;;;;;;;;5053166;28;20589;-67
2021/04/20 00:04:44;;;;;;;17.27;10.70;;;;;;;;;;5040893;28;20511;-66
2021/04/20 00:07:10;;;;;;;18.10;12.67;;;;;;;;;;5033291;28;20412;-66
2021/04/20 00:09:36;;;;;;;16.77;11.60;;;;;;;;;;5034787;28;20509;-66
2021/04/20 00:12:03;;;;;;;23.93;12.20;;;;;;;;;;5034879;28;20798;-66
2021/04/20 00:14:29;;;;;;;20.70;13.87;;;;;;;;;;5034622;28;20453;-66
2021/04/20 00:16:55;;;;;;;19.57;12.50;;;;;;;;;;5034909;28;20409;-66
2021/04/20 00:19:21;;;;;;;17.93;12.13;;;;;;;;;;5043434;28;20533;-66
2021/04/20 00:21:47;;;;;;;15.70;11.70;;;;;;;;;;5054519;28;20410;-70
2021/04/20 00:24:13;;;;;;;22.00;14.07;;;;;;;;;;5053217;28;20511;-66
2021/04/20 00:26:39;;;;;;;21.30;12.97;;;;;;;;;;5054320;28;20404;-66
2021/04/20 00:29:05;;;;;;;19.53;12.47;;;;;;;;;;5052218;28;20857;-66
2021/04/20 00:31:31;;;;;;;18.30;13.07;;;;;;;;;;5054381;28;20401;-66
2021/04/20 00:33:57;;;;;;;21.70;13.33;;;;;;;;;;5048201;28;20430;-66
2021/04/20 00:36:23;;;;;;;19.30;14.07;;;;;;;;;;5034223;28;20425;-67
2021/04/20 00:38:49;;;;;;;22.13;14.60;;;;;;;;;;5034510;28;20429;-66
2021/04/20 00:41:16;;;;;;;18.70;12.97;;;;;;;;;;5034511;28;20442;-66
2021/04/20 00:43:46;;;;;;;24.13;13.57;;;;;;;;;;5036995;28;20838;-66
2021/04/20 00:46:16;;;;;;;25.37;14.77;;;;;;;;;;5054276;28;20482;-66
2021/04/20 00:48:42;;;;;;;24.80;15.00;;;;;;;;;;5053404;28;20920;-66
2021/04/20 00:51:08;;;;;;;19.67;13.80;;;;;;;;;;5054125;28;21110;-66
2021/04/20 00:53:34;;;;;;;22.70;13.40;;;;;;;;;;5054287;28;20767;-66
2021/04/20 00:56:01;;;;;;;24.83;14.00;;;;;;;;;;5052047;28;20453;-66
2021/04/20 00:58:27;;;;;;;24.47;16.07;;;;;;;;;;5054356;28;20495;-66
2021/04/20 01:00:53;;;;;;;24.00;15.73;;;;;;;;;;5053382;28;20787;-66
2021/04/20 01:03:19;;;;;;;24.00;14.67;;;;;;;;;;5053867;28;20412;-66
2021/04/20 01:05:46;;;;;;;25.20;15.27;;;;;;;;;;5038334;28;20531;-66
2021/04/20 01:08:13;;;;;;;26.50;16.50;;;;;;;;;;5044229;28;20769;-66
2021/04/20 01:10:43;;;;;;;23.27;14.80;;;;;;;;;;5052588;28;20455;-66
2021/04/20 01:13:10;;;;;;;25.07;14.80;;;;;;;;;;5053872;28;20415;-67
2021/04/20 01:15:36;;;;;;;23.70;14.60;;;;;;;;;;5050633;28;20471;-67
2021/04/20 01:18:09;;;;;;;21.17;14.77;;;;;;;;;;5053944;28;20776;-66
2021/04/20 01:20:35;;;;;;;26.23;15.70;;;;;;;;;;5051712;28;20460;-66
2021/04/20 01:23:02;;;;;;;22.60;15.20;;;;;;;;;;5053485;28;20417;-66
2021/04/20 01:25:29;;;;;;;20.83;15.07;;;;;;;;;;5052349;28;20456;-67
2021/04/20 01:27:55;;;;;;;19.07;14.47;;;;;;;;;;5053523;28;20415;-67
2021/04/20 01:30:21;;;;;;;28.20;15.87;;;;;;;;;;5051217;28;20869;-66
2021/04/20 01:32:47;;;;;;;23.73;15.63;;;;;;;;;;5053674;28;20403;-66
2021/04/20 01:35:14;;;;;;;25.77;15.90;;;;;;;;;;5052718;28;20462;-66
2021/04/20 01:37:40;;;;;;;23.00;15.87;;;;;;;;;;5053372;28;20485;-66
2021/04/20 01:40:07;;;;;;;27.83;16.40;;;;;;;;;;5052457;28;20480;-66
2021/04/20 01:42:34;;;;;;;24.90;16.47;;;;;;;;;;5053574;28;20907;-66
2021/04/20 01:45:00;;;;;;;24.13;15.80;;;;;;;;;;5052793;28;20442;-66
2021/04/20 01:47:27;;;;;;;25.43;16.53;;;;;;;;;;5053365;28;20462;-66
2021/04/20 01:49:55;;;;;;;25.50;17.40;;;;;;;;;;5050869;28;20454;-66
2021/04/20 01:52:21;;;;;;;24.60;16.13;;;;;;;;;;5053215;28;20408;-66
2021/04/20 01:54:47;;;;;;;30.53;17.40;;;;;;;;;;5052346;28;20428;-66
2021/04/20 01:57:13;;;;;;;24.17;17.50;;;;;;;;;;5052788;28;20443;-66
2021/04/20 01:59:40;;;;;;;26.60;17.10;;;;;;;;;;5042861;28;20437;-66
2021/04/20 02:02:06;;;;;;;25.60;17.83;;;;;;;;;;5049833;28;20525;-66
2021/04/20 02:04:32;;;;;;;26.17;18.37;;;;;;;;;;5052812;28;20427;-66
2021/04/20 02:06:58;;;;;;;24.23;16.63;;;;;;;;;;5051928;28;20460;-66
2021/04/20 02:09:24;;;;;;;26.67;17.00;;;;;;;;;;5053146;28;20810;-66
2021/04/20 02:11:50;;;;;;;25.50;18.57;;;;;;;;;;5052134;28;20440;-66
2021/04/20 02:14:16;;;;;;;29.20;17.90;;;;;;;;;;5052872;28;20442;-66
2021/04/20 02:16:42;;;;;;;30.13;17.90;;;;;;;;;;5037604;28;20486;-67
2021/04/20 02:19:12;;;;;;;27.03;18.20;;;;;;;;;;5032981;28;20409;-66
2021/04/20 02:21:39;;;;;;;28.10;17.87;;;;;;;;;;5033628;28;20432;-66
2021/04/20 02:24:06;;;;;;;26.07;17.67;;;;;;;;;;5034284;28;20429;-66
2021/04/20 02:26:33;;;;;;;28.30;18.80;;;;;;;;;;5045585;28;20777;-66
2021/04/20 02:28:59;;;;;;;29.60;18.97;;;;;;;;;;5052766;28;20412;-66
2021/04/20 02:31:26;;;;;;;27.07;17.80;;;;;;;;;;5042139;28;20469;-67
2021/04/20 02:33:54;;;;;;;31.47;21.30;;;;;;;;;;5037008;28;20440;-67
2021/04/20 02:36:21;;;;;;;28.80;15.80;;;;;;;;;;5053149;28;20517;-66
2021/04/20 02:38:47;;;;;;;25.77;18.00;;;;;;;;;;5056679;28;20428;-66
2021/04/20 02:41:15;;;;;;;27.87;18.53;;;;;;;;;;5055295;28;20433;-66
2021/04/20 02:43:41;;;;;;;26.53;17.80;;;;;;;;;;5056858;28;20406;-66
2021/04/20 02:46:07;;;;;;;24.70;16.80;;;;;;;;;;5053595;28;20551;-66
2021/04/20 02:48:33;;;;;;;25.20;17.30;;;;;;;;;;5055112;28;20427;-66
2021/04/20 02:51:00;;;;;;;30.60;18.63;;;;;;;;;;5055129;28;20471;-66
2021/04/20 02:53:31;;;;;;;30.90;19.70;;;;;;;;;;5056357;28;20479;-66
2021/04/20 02:55:57;;;;;;;28.83;19.80;;;;;;;;;;5055200;28;20533;-66
2021/04/20 02:58:24;;;;;;;26.00;18.10;;;;;;;;;;5056509;28;20405;-66
2021/04/20 03:00:54;;;;;;;29.57;19.00;;;;;;;;;;5055117;28;20430;-66
2021/04/20 03:03:21;;;;;;;31.17;18.07;;;;;;;;;;5055341;28;20438;-66
2021/04/20 03:05:47;;;;;;;33.37;18.30;;;;;;;;;;5055009;28;20463;-66
2021/04/20 03:08:14;;;;;;;27.30;18.33;;;;;;;;;;5054912;28;20945;-66
2021/04/20 03:10:42;;;;;;;26.63;18.23;;;;;;;;;;5054935;28;20463;-66
2021/04/20 03:13:08;;;;;;;31.43;19.97;;;;;;;;;;5056643;28;20909;-66
2021/04/20 03:15:35;;;;;;;34.10;21.93;;;;;;;;;;5052620;28;20488;-66
2021/04/20 03:18:01;;;;;;;29.57;19.53;;;;;;;;;;5036076;28;20463;-66
2021/04/20 03:20:28;;;;;;;30.50;20.40;;;;;;;;;;5037170;28;20773;-66
2021/04/20 03:22:55;;;;;;;31.60;18.93;;;;;;;;;;5056018;28;20403;-66
2021/04/20 03:25:21;;;;;;;24.87;18.13;;;;;;;;;;5054917;28;20436;-66
2021/04/20 03:27:50;;;;;;;35.67;20.27;;;;;;;;;;5055973;28;20884;-66
2021/04/20 03:30:18;;;;;;;26.13;17.27;;;;;;;;;;5050150;28;20530;-67
2021/04/20 03:33:03;;;;;;;34.80;19.37;;;;;;;;;;5046538;28;20411;-66
2021/04/20 03:35:36;;;;;;;25.80;17.93;;;;;;;;;;5053698;28;20442;-66
2021/04/20 03:38:08;;;;;;;29.27;18.87;;;;;;;;;;5035839;28;20412;-66
2021/04/20 03:40:36;;;;;;;32.17;20.10;;;;;;;;;;5037101;28;20420;-66
2021/04/20 03:43:07;;;;;;;31.67;20.07;;;;;;;;;;5054524;28;20500;-66
2021/04/20 03:45:36;;;;;;;29.10;19.20;;;;;;;;;;5053118;28;20416;-67
2021/04/20 03:48:11;;;;;;;33.90;20.40;;;;;;;;;;5035695;28;20870;-66
2021/04/20 03:50:39;;;;;;;32.80;19.77;;;;;;;;;;5036838;28;20494;-67
2021/04/20 03:53:07;;;;;;;26.70;18.00;;;;;;;;;;5055314;28;20408;-66
2021/04/20 03:55:34;;;;;;;35.23;20.30;;;;;;;;;;5053074;28;20419;-67
2021/04/20 03:58:00;;;;;;;33.10;20.47;;;;;;;;;;5055240;28;20415;-66
2021/04/20 04:00:27;;;;;;;32.13;20.30;;;;;;;;;;5054201;28;20415;-67
2021/04/20 04:02:55;;;;;;;34.13;21.07;;;;;;;;;;5051018;28;20430;-66
2021/04/20 04:05:23;;;;;;;29.87;19.53;;;;;;;;;;5053980;28;20833;-66
2021/04/20 04:07:51;;;;;;;30.60;19.37;;;;;;;;;;5051916;28;20428;-67
2021/04/20 04:10:18;;;;;;;33.20;21.77;;;;;;;;;;5054743;28;20447;-66
2021/04/20 04:12:45;;;;;;;37.43;21.47;;;;;;;;;;5053710;28;20917;-66
2021/04/20 04:15:11;;;;;;;30.77;19.73;;;;;;;;;;5041073;28;20463;-66
2021/04/20 04:17:39;;;;;;;37.23;20.37;;;;;;;;;;5051654;28;20437;-66
2021/04/20 04:20:06;;;;;;;33.07;21.50;;;;;;;;;;5054572;28;20902;-66
2021/04/20 04:22:34;;;;;;;28.83;20.57;;;;;;;;;;5053540;28;20929;-66
2021/04/20 04:25:02;;;;;;;43.13;22.17;;;;;;;;;;5054480;28;20452;-66
2021/04/20 04:27:29;;;;;;;33.97;20.40;;;;;;;;;;5053546;28;20472;-66
2021/04/20 04:29:57;;;;;;;30.43;20.70;;;;;;;;;;5054329;28;20453;-66
2021/04/20 04:32:24;;;;;;;30.47;21.30;;;;;;;;;;5053506;28;20452;-66
2021/04/20 04:34:51;;;;;;;29.30;21.03;;;;;;;;;;5054412;28;20568;-66
2021/04/20 04:37:17;;;;;;;34.40;22.40;;;;;;;;;;5053317;28;20424;-66
2021/04/20 04:39:43;;;;;;;35.43;20.30;;;;;;;;;;5054263;28;20405;-66
2021/04/20 04:42:10;;;;;;;28.97;19.87;;;;;;;;;;5041006;28;20440;-66
2021/04/20 04:44:36;;;;;;;30.70;19.53;;;;;;;;;;5034355;28;20434;-66
2021/04/20 04:47:02;;;;;;;38.13;22.30;;;;;;;;;;5045637;28;20794;-66
2021/04/20 04:49:30;;;;;;;31.80;20.80;;;;;;;;;;5054017;28;20447;-66
2021/04/20 04:51:57;;;;;;;28.70;20.23;;;;;;;;;;5051771;28;20471;-66
2021/04/20 04:54:24;;;;;;;32.63;20.17;;;;;;;;;;5053590;28;20510;-66
2021/04/20 04:56:50;;;;;;;31.60;20.77;;;;;;;;;;5044354;28;20519;-66
2021/04/20 04:59:18;;;;;;;30.80;20.93;;;;;;;;;;5034197;28;20427;-66
2021/04/20 05:01:45;;;;;;;31.20;20.17;;;;;;;;;;5041929;28;20831;-66
2021/04/20 05:04:12;;;;;;;34.10;20.47;;;;;;;;;;5053639;28;20407;-66
2021/04/20 05:06:48;;;;;;;45.30;21.90;;;;;;;;;;5052593;28;20432;-66
2021/04/20 05:09:15;;;;;;;36.27;20.97;;;;;;;;;;5053854;28;20404;-66
2021/04/20 05:11:42;;;;;;;29.37;21.10;;;;;;;;;;5045602;28;20429;-66
2021/04/20 05:14:09;;;;;;;33.53;21.83;;;;;;;;;;5033620;28;20462;-66
2021/04/20 05:16:35;;;;;;;36.33;22.10;;;;;;;;;;5033536;28;20424;-66
2021/04/20 05:19:06;;;;;;;32.87;19.43;;;;;;;;;;5033805;28;20407;-66
2021/04/20 05:21:32;;;;;;;36.20;19.97;;;;;;;;;;5048642;28;20431;-66
2021/04/20 05:23:58;;;;;;;32.70;20.23;;;;;;;;;;5053659;28;20771;-66
2021/04/20 05:26:28;;;;;;;31.27;20.27;;;;;;;;;;5052145;28;20420;-66
2021/04/20 05:28:55;;;;;;;40.20;24.30;;;;;;;;;;5053298;28;20482;-66
2021/04/20 05:31:21;;;;;;;34.93;21.30;;;;;;;;;;5052224;28;20963;-65
2021/04/20 05:33:54;;;;;;;34.53;21.60;;;;;;;;;;5053302;28;20767;-66
2021/04/20 05:36:21;;;;;;;32.07;20.77;;;;;;;;;;5066649;23;20575;-70
2021/04/20 05:38:54;;;;;;;30.03;19.50;;;;;;;;;;5052662;28;20425;-70
2021/04/20 05:41:24;;;;;;;35.00;21.27;;;;;;;;;;5053221;28;20548;-71
2021/04/20 05:43:51;;;;;;;36.43;22.93;;;;;;;;;;5052452;28;20419;-70
2021/04/20 05:46:18;;;;;;;33.60;21.70;;;;;;;;;;5053358;28;20453;-70
2021/04/20 05:48:44;;;;;;;35.50;20.17;;;;;;;;;;5052383;28;20417;-71
2021/04/20 05:51:11;;;;;;;33.80;20.90;;;;;;;;;;5042756;28;20467;-70
2021/04/20 05:53:38;;;;;;;32.60;21.67;;;;;;;;;;5033099;28;20515;-70
2021/04/20 05:56:04;;;;;;;33.93;19.90;;;;;;;;;;5032650;28;20797;-71
2021/04/20 05:58:31;;;;;;;31.10;21.20;;;;;;;;;;5047362;28;20427;-70
2021/04/20 06:00:59;;;;;;;31.43;20.40;;;;;;;;;;5053089;28;20462;-70
2021/04/20 06:03:25;;;;;;;30.43;19.00;;;;;;;;;;5051701;28;20498;-70
2021/04/20 06:05:52;;;;;;;32.83;21.00;;;;;;;;;;5050733;28;20440;-70
2021/04/20 06:08:18;;;;;;;32.63;20.53;;;;;;;;;;5051853;28;20454;-70
2021/04/20 06:10:44;;;;;;;32.13;19.70;;;;;;;;;;5052458;28;20455;-71
2021/04/20 06:13:10;;;;;;;30.60;18.43;;;;;;;;;;5051321;28;20420;-72
2021/04/20 06:15:37;;;;;;;30.93;19.90;;;;;;;;;;5052683;28;20425;-71
2021/04/20 06:18:06;;;;;;;32.90;19.40;;;;;;;;;;5041621;28;20425;-71
2021/04/20 06:20:32;;;;;;;32.37;19.40;;;;;;;;;;5032529;28;20472;-72
2021/04/20 06:22:58;;;;;;;27.53;19.13;;;;;;;;;;5041172;28;20421;-71
2021/04/20 06:25:25;;;;;;;31.23;20.03;;;;;;;;;;5052964;28;20428;-72
2021/04/20 06:27:51;;;;;;;30.10;19.80;;;;;;;;;;5051962;28;20837;-71
2021/04/20 06:30:19;;;;;;;28.60;19.27;;;;;;;;;;5052809;28;20461;-72
2021/04/20 06:32:46;;;;;;;31.70;18.20;;;;;;;;;;5051454;28;20451;-71
2021/04/20 06:35:13;;;;;;;34.90;19.47;;;;;;;;;;5052432;28;20452;-70
2021/04/20 06:37:40;;;;;;;28.03;18.23;;;;;;;;;;5051739;28;20938;-70
2021/04/20 06:40:09;;;;;;;27.97;18.60;;;;;;;;;;5051316;28;20433;-70
2021/04/20 06:42:38;;;;;;;28.57;18.83;;;;;;;;;;5051174;28;20727;-71
2021/04/20 06:45:09;;;;;;;26.60;16.90;;;;;;;;;;5052658;28;20436;-71
2021/04/20 06:47:55;;;;;;;25.30;16.60;;;;;;;;;;5051330;28;20432;-71
2021/04/20 06:50:21;;;;;;;26.87;16.53;;;;;;;;;;5052359;28;20478;-71
2021/04/20 06:52:53;;;;;;;23.47;17.03;;;;;;;;;;5045205;28;20819;-71
2021/04/20 06:55:29;;;;;;;27.27;18.20;;;;;;;;;;5032561;28;20481;-71
2021/04/20 06:58:03;;;;;;;28.33;18.17;;;;;;;;;;5039268;28;20427;-71
2021/04/20 07:00:33;;;;;;;25.30;15.80;;;;;;;;;;5051877;28;20411;-71
2021/04/20 07:03:11;;;;;;;29.93;19.43;;;;;;;;;;5032841;28;20441;-71
2021/04/20 07:05:40;;;;;;;28.13;18.50;;;;;;;;;;5045068;28;20974;-71
2021/04/20 07:08:12;;;;;;;26.30;17.47;;;;;;;;;;5055675;28;20451;-71
2021/04/20 07:10:39;;;;;;;27.03;17.80;;;;;;;;;;5051904;28;20947;-71
2021/04/20 07:13:10;;;;;;;28.30;20.00;;;;;;;;;;5047458;28;20430;-70
2021/04/20 07:15:44;;;;;;;31.63;18.80;;;;;;;;;;5048682;28;20945;-71
2021/04/20 07:18:34;;;;;;;26.70;17.42;;;;;;;;;;5044801;28;20527;-71
2021/04/20 07:21:19;;;;;;;25.47;17.87;;;;;;;;;;5037687;28;20212;-71
2021/04/20 07:23:51;;;;;;;29.30;18.20;;;;;;;;;;5047228;28;20458;-70
2021/04/20 07:26:17;;;;;;;27.50;17.20;;;;;;;;;;5043716;28;20474;-71
2021/04/20 07:28:46;;;;;;;25.00;18.07;;;;;;;;;;5043883;28;20466;-72
2021/04/20 07:31:18;;;;;;;29.70;18.80;;;;;;;;;;5044777;28;20455;-72
2021/04/20 07:34:01;;;;;;;29.13;18.60;;;;;;;;;;5048038;28;20414;-72
2021/04/20 07:36:41;;;;;;;30.70;16.73;;;;;;;;;;5044132;28;20444;-72
2021/04/20 07:39:14;;;;;;;27.07;19.20;;;;;;;;;;5047505;28;20415;-72
2021/04/20 07:41:52;;;;;;;26.17;17.23;;;;;;;;;;5046128;28;20469;-72
2021/04/20 07:44:21;;;;;;;27.47;16.27;;;;;;;;;;5045035;28;20419;-72
2021/04/20 07:46:50;;;;;;;26.67;17.37;;;;;;;;;;5043056;28;20469;-72
2021/04/20 07:49:19;;;;;;;26.10;17.07;;;;;;;;;;5046223;28;20424;-72
2021/04/20 07:51:50;;;;;;;23.93;16.57;;;;;;;;;;5044258;28;20458;-72
2021/04/20 07:54:54;;;;;;;27.37;17.00;;;;;;;;;;5045070;28;20427;-74
2021/04/20 07:57:25;;;;;;;27.57;17.03;;;;;;;;;;4992552;28;20422;-72
2021/04/20 07:59:54;;;;;;;25.17;18.23;;;;;;;;;;4995674;28;20415;-72
2021/04/20 08:02:23;;;;;;;22.80;15.97;;;;;;;;;;5022130;28;20413;-73
2021/04/20 08:05:08;;;;;;;21.70;16.27;;;;;;;;;;5045759;28;20436;-72
2021/04/20 08:08:01;;;;;;;23.20;15.27;;;;;;;;;;5047260;28;20774;-72
2021/04/20 08:10:44;;;;;;;23.30;14.27;;;;;;;;;;5039843;28;20469;-72
2021/04/20 08:13:10;;;;;;;27.47;16.97;;;;;;;;;;5053115;28;20415;-72
2021/04/20 08:15:52;;;;;;;25.42;16.13;;;;;;;;;;5053410;28;20419;-72
2021/04/20 08:18:21;;;;;;;21.57;16.20;;;;;;;;;;5052954;28;20186;-71
2021/04/20 08:20:48;;;;;;;23.30;15.67;;;;;;;;;;5051996;28;20511;-73
2021/04/20 08:23:14;;;;;;;20.10;15.30;;;;;;;;;;5052229;28;20441;-71
2021/04/20 08:25:43;;;;;;;21.93;15.20;;;;;;;;;;5053135;28;20445;-71
2021/04/20 08:28:25;;;;;;;24.90;16.10;;;;;;;;;;5051693;28;20432;-72
2021/04/20 08:30:58;;;;;;;24.30;15.70;;;;;;;;;;5053447;28;20472;-71
2021/04/20 08:33:32;;;;;;;21.30;15.53;;;;;;;;;;5049905;28;20428;-72
2021/04/20 08:35:59;;;;;;;20.43;15.30;;;;;;;;;;5052071;28;20848;-71
2021/04/20 08:38:44;;;;;;;20.70;14.80;;;;;;;;;;5047266;28;20429;-71
2021/04/20 08:41:29;;;;;;;20.80;13.87;;;;;;;;;;5050728;28;20412;-71
2021/04/20 08:44:14;;;;;;;21.27;15.03;;;;;;;;;;5049091;28;20443;-71
2021/04/20 08:46:54;;;;;;;21.47;15.03;;;;;;;;;;5054409;28;20850;-71
2021/04/20 08:49:40;;;;;;;17.93;13.40;;;;;;;;;;5049586;28;20432;-72
2021/04/20 08:52:15;;;;;;;22.87;16.70;;;;;;;;;;5042595;28;20480;-71
2021/04/20 08:54:47;;;;;;;20.03;14.73;;;;;;;;;;5050003;28;20482;-71
2021/04/20 08:57:25;;;;;;;22.27;15.53;;;;;;;;;;5052338;28;20431;-72
2021/04/20 09:00:04;;;;;;;23.17;16.17;;;;;;;;;;5048578;28;20427;-71
2021/04/20 09:02:42;;;;;;;21.00;14.77;;;;;;;;;;5051408;28;20440;-71
2021/04/20 09:05:08;;;;;;;19.80;14.37;;;;;;;;;;5040644;28;20555;-72
2021/04/20 09:07:53;;;;;;;20.10;14.33;;;;;;;;;;5050660;28;20422;-71
2021/04/20 09:10:32;;;;;;;22.47;15.23;;;;;;;;;;5046726;28;20459;-71
2021/04/20 09:13:21;;;;;;;21.20;13.40;;;;;;;;;;5053134;28;20539;-71
2021/04/20 09:15:53;;;;;;;24.40;15.40;;;;;;;;;;5034859;28;20459;-72
2021/04/20 09:18:21;;;;;;;22.43;16.20;;;;;;;;;;5046287;28;20413;-71
2021/04/20 09:20:56;;;;;;;24.03;15.43;;;;;;;;;;5046769;28;20982;-72
2021/04/20 09:23:27;;;;;;;20.17;14.40;;;;;;;;;;5049987;28;20836;-71
2021/04/20 09:25:53;;;;;;;20.00;13.93;;;;;;;;;;5044470;28;20487;-72
2021/04/20 09:28:23;;;;;;;18.57;13.07;;;;;;;;;;5037317;28;20424;-72
2021/04/20 09:30:49;;;;;;;17.90;12.87;;;;;;;;;;5051907;28;20439;-71
2021/04/20 09:33:19;;;;;;;22.13;13.73;;;;;;;;;;5040281;28;20414;-71
2021/04/20 09:35:46;;;;;;;17.23;12.97;;;;;;;;;;5041455;28;20477;-72
2021/04/20 09:38:13;;;;;;;22.30;13.60;;;;;;;;;;5044001;28;20922;-72
2021/04/20 09:40:40;;;;;;;22.60;14.37;;;;;;;;;;5046775;28;20416;-71
2021/04/20 09:43:26;;;;;;;22.77;14.30;;;;;;;;;;5049983;28;20516;-72
2021/04/20 09:45:57;;;;;;;21.07;13.90;;;;;;;;;;5049386;28;20495;-72
2021/04/20 09:48:36;;;;;;;20.50;14.80;;;;;;;;;;5048904;28;20771;-71
2021/04/20 09:51:11;;;;;;;19.17;13.37;;;;;;;;;;5050298;28;20462;-72
2021/04/20 09:53:55;;;;;;;21.30;14.07;;;;;;;;;;5049006;28;20434;-72
2021/04/20 09:56:22;;;;;;;22.63;14.50;;;;;;;;;;5041050;28;20530;-71
2021/04/20 09:58:49;;;;;;;18.10;13.83;;;;;;;;;;5049129;28;20420;-72
2021/04/20 10:01:33;;;;;;;20.73;14.07;;;;;;;;;;5051752;28;20769;-72
2021/04/20 10:04:05;;;;;;;19.37;14.27;;;;;;;;;;5048735;28;20429;-72
2021/04/20 10:06:48;;;;;;;20.20;13.13;;;;;;;;;;5050824;28;20442;-71
2021/04/20 10:09:20;;;;;;;19.90;15.80;;;;;;;;;;5046311;28;20449;-70
2021/04/20 10:12:02;;;;;;;23.70;15.27;;;;;;;;;;5050136;28;20425;-72
2021/04/20 10:14:28;;;;;;;19.30;13.83;;;;;;;;;;5042043;28;20435;-72
2021/04/20 10:17:00;;;;;;;20.10;13.70;;;;;;;;;;5044976;28;20456;-72
2021/04/20 10:19:26;;;;;;;20.23;13.97;;;;;;;;;;5049277;28;20414;-72
2021/04/20 10:21:55;;;;;;;23.07;14.83;;;;;;;;;;5049914;28;20405;-72
2021/04/20 10:24:23;;;;;;;21.70;15.40;;;;;;;;;;5047729;28;20474;-71
2021/04/20 10:26:54;;;;;;;17.50;12.40;;;;;;;;;;5051029;28;20416;-72
2021/04/20 10:29:26;;;;;;;19.30;13.63;;;;;;;;;;5049378;28;20426;-71
2021/04/20 10:32:01;;;;;;;20.60;13.77;;;;;;;;;;5049159;28;20436;-71
2021/04/20 10:34:28;;;;;;;21.97;14.53;;;;;;;;;;5045068;28;20437;-71
2021/04/20 10:36:55;;;;;;;20.10;13.77;;;;;;;;;;5049986;28;20418;-71
2021/04/20 10:39:25;;;;;;;18.55;14.20;;;;;;;;;;5039923;28;20782;-71
2021/04/20 10:41:52;;;;;;;16.57;13.07;;;;;;;;;;5044526;28;20473;-72
2021/04/20 10:44:19;;;;;;;17.87;12.83;;;;;;;;;;5039391;28;20863;-71
2021/04/20 10:46:50;;;;;;;18.70;13.23;;;;;;;;;;5049662;28;20425;-73
2021/04/20 10:49:17;;;;;;;17.10;12.67;;;;;;;;;;5053244;28;20429;-71
2021/04/20 10:51:44;;;;;;;18.37;13.00;;;;;;;;;;5050677;28;20429;-72
2021/04/20 10:54:11;;;;;;;19.43;13.57;;;;;;;;;;5051175;28;20431;-71
2021/04/20 10:56:37;;;;;;;19.47;12.70;;;;;;;;;;5042126;28;20877;-71
2021/04/20 10:59:07;;;;;;;17.90;12.87;;;;;;;;;;5041333;28;20539;-71
2021/04/20 11:01:34;;;;;;;15.13;11.03;;;;;;;;;;5052314;28;20831;-71
2021/04/20 11:04:02;;;;;;;20.87;13.40;;;;;;;;;;5036906;28;20436;-72
2021/04/20 11:06:35;;;;;;;16.10;12.53;;;;;;;;;;5053731;28;20536;-72
2021/04/20 11:09:01;;;;;;;16.17;11.03;;;;;;;;;;5049563;28;20488;-71
2021/04/20 11:11:27;;;;;;;17.37;13.17;;;;;;;;;;5045902;28;20451;-71
2021/04/20 11:13:53;;;;;;;15.53;11.53;;;;;;;;;;5052847;28;20426;-73
2021/04/20 11:16:26;;;;;;;18.67;13.33;;;;;;;;;;5053540;28;20457;-73
2021/04/20 11:18:58;;;;;;;17.70;12.27;;;;;;;;;;5054730;28;20500;-71
2021/04/20 11:21:26;;;;;;;17.33;12.60;;;;;;;;;;5055004;28;20887;-71
2021/04/20 11:24:25;;;;;;;18.10;12.30;;;;;;;;;;5052853;28;20464;-71
2021/04/20 11:27:11;;;;;;;16.07;11.43;;;;;;;;;;5020080;28;20418;-71
2021/04/20 11:29:42;;;;;;;17.43;11.37;;;;;;;;;;5053574;28;20831;-71
2021/04/20 11:32:09;;;;;;;15.17;11.00;;;;;;;;;;5052127;28;20520;-71
2021/04/20 11:34:36;;;;;;;17.23;11.67;;;;;;;;;;5045948;28;20449;-71
2021/04/20 11:37:05;;;;;;;15.50;10.13;;;;;;;;;;5053133;28;20422;-71
2021/04/20 11:39:51;;;;;;;18.20;10.80;;;;;;;;;;5049577;28;20417;-72
2021/04/20 11:42:27;;;;;;;14.83;11.30;;;;;;;;;;5052453;28;20429;-71
2021/04/20 11:44:58;;;;;;;13.63;9.90;;;;;;;;;;5051133;28;20536;-71
2021/04/20 11:47:25;;;;;;;15.83;11.83;;;;;;;;;;5054317;28;20418;-71
2021/04/20 11:49:57;;;;;;;15.90;10.97;;;;;;;;;;5053838;28;20465;-72
2021/04/20 11:52:25;;;;;;;16.00;11.87;;;;;;;;;;5049515;28;20491;-71
2021/04/20 11:54:56;;;;;;;14.00;10.40;;;;;;;;;;5052030;28;20945;-71
2021/04/20 11:57:22;;;;;;;15.10;11.00;;;;;;;;;;5052327;28;20410;-72
2021/04/20 11:59:49;;;;;;;14.63;9.37;;;;;;;;;;5048580;28;20784;-71
2021/04/20 12:02:18;;;;;;;13.40;9.37;;;;;;;;;;5052519;28;20437;-71
2021/04/20 12:04:47;;;;;;;15.07;9.43;;;;;;;;;;5048896;28;21025;-72
2021/04/20 12:07:15;;;;;;;11.93;8.70;;;;;;;;;;5053118;28;20440;-71
2021/04/20 12:09:42;;;;;;;15.33;10.57;;;;;;;;;;5045944;28;20427;-71
2021/04/20 12:12:09;;;;;;;13.83;10.23;;;;;;;;;;5053890;28;20933;-71
2021/04/20 12:14:39;;;;;;;13.93;9.60;;;;;;;;;;5051727;28;20479;-70
2021/04/20 12:17:05;;;;;;;16.77;10.47;;;;;;;;;;5053010;28;20419;-70
2021/04/20 12:19:33;;;;;;;14.13;9.27;;;;;;;;;;5052010;28;20422;-71
2021/04/20 12:22:00;;;;;;;12.97;9.63;;;;;;;;;;5053465;28;20496;-72
2021/04/20 12:24:27;;;;;;;11.53;8.23;;;;;;;;;;5048515;28;20424;-71
2021/04/20 12:26:57;;;;;;;12.20;8.33;;;;;;;;;;5051455;28;20431;-71
2021/04/20 12:29:27;;;;;;;12.17;8.80;;;;;;;;;;5051919;28;20447;-71
2021/04/20 12:31:53;;;;;;;13.27;10.37;;;;;;;;;;5048430;28;20421;-72
2021/04/20 12:34:26;;;;;;;10.60;8.27;;;;;;;;;;5051732;28;21035;-71
2021/04/20 12:36:53;;;;;;;12.10;8.07;;;;;;;;;;5052728;28;20417;-71
2021/04/20 12:39:29;;;;;;;11.93;9.23;;;;;;;;;;5052797;28;20944;-71
2021/04/20 12:41:57;;;;;;;13.10;9.50;;;;;;;;;;5053128;28;20507;-72
2021/04/20 12:44:34;;;;;;;13.07;8.90;;;;;;;;;;5051372;28;20423;-71
2021/04/20 12:47:01;;;;;;;15.40;9.77;;;;;;;;;;5049979;28;20467;-70
2021/04/20 12:49:27;;;;;;;13.77;8.73;;;;;;;;;;5051268;28;20421;-70
2021/04/20 12:51:54;;;;;;;12.83;8.90;;;;;;;;;;5051316;28;20924;-72
2021/04/20 12:54:21;;;;;;;11.80;8.90;;;;;;;;;;5049362;28;20944;-71
2021/04/20 12:56:52;;;;;;;10.83;8.83;;;;;;;;;;5052727;28;20750;-71
2021/04/20 12:59:23;;;;;;;12.97;8.70;;;;;;;;;;5051060;28;20421;-72
2021/04/20 13:01:54;;;;;;;15.23;9.67;;;;;;;;;;5049762;28;20453;-72
2021/04/20 13:04:25;;;;;;;12.60;8.40;;;;;;;;;;5044801;28;20455;-72
2021/04/20 13:06:51;;;;;;;9.30;7.60;;;;;;;;;;5040917;28;20430;-72
2021/04/20 13:09:23;;;;;;;12.03;8.17;;;;;;;;;;5038164;28;20436;-73
2021/04/20 13:11:50;;;;;;;12.90;8.40;;;;;;;;;;5050080;28;21049;-70
2021/04/20 13:14:19;;;;;;;12.00;8.20;;;;;;;;;;5051001;28;20437;-70
2021/04/20 13:16:49;;;;;;;13.43;7.93;;;;;;;;;;5051806;28;20416;-71
2021/04/20 13:19:16;;;;;;;9.83;7.60;;;;;;;;;;5050427;28;20904;-71
2021/04/20 13:21:46;;;;;;;11.53;8.40;;;;;;;;;;5052263;28;20429;-71
2021/04/20 13:24:13;;;;;;;12.87;9.30;;;;;;;;;;5051185;28;20506;-71
2021/04/20 13:26:39;;;;;;;10.47;7.97;;;;;;;;;;5049592;28;20555;-71
2021/04/20 13:29:07;;;;;;;11.67;8.77;;;;;;;;;;5050538;28;20421;-71
2021/04/20 13:31:35;;;;;;;11.57;8.67;;;;;;;;;;5052566;28;20548;-71
2021/04/20 13:34:03;;;;;;;13.77;8.63;;;;;;;;;;5050229;28;20938;-73
2021/04/20 13:36:30;;;;;;;12.40;8.90;;;;;;;;;;5050946;28;20463;-72
2021/04/20 13:39:05;;;;;;;12.00;8.83;;;;;;;;;;5049254;28;20406;-71
2021/04/20 13:41:33;;;;;;;13.37;8.47;;;;;;;;;;5052470;28;20520;-71
2021/04/20 13:43:59;;;;;;;14.70;8.93;;;;;;;;;;5051197;28;20512;-70
2021/04/20 13:46:26;;;;;;;8.90;7.60;;;;;;;;;;5051105;28;20926;-71
2021/04/20 13:48:52;;;;;;;13.50;8.43;;;;;;;;;;5052090;28;20948;-71
2021/04/20 13:51:29;;;;;;;10.80;8.03;;;;;;;;;;5050658;28;20462;-71
2021/04/20 13:53:57;;;;;;;11.63;8.27;;;;;;;;;;5043746;28;20524;-71
2021/04/20 13:56:24;;;;;;;11.17;7.80;;;;;;;;;;5068823;28;20499;-71
2021/04/20 13:58:53;;;;;;;12.53;8.33;;;;;;;;;;5054108;28;20425;-71
2021/04/20 14:01:24;;;;;;;11.27;7.60;;;;;;;;;;5049268;28;20432;-71
2021/04/20 14:03:54;;;;;;;16.97;8.30;;;;;;;;;;5047506;28;20504;-71
2021/04/20 14:06:20;;;;;;;10.20;7.23;;;;;;;;;;5044628;28;20967;-73
2021/04/20 14:08:55;;;;;;;12.23;7.67;;;;;;;;;;5049921;28;20424;-71
2021/04/20 14:11:23;;;;;;;8.63;6.77;;;;;;;;;;5045078;28;20464;-72
2021/04/20 14:13:50;;;;;;;10.70;7.65;;;;;;;;;;5049422;28;20442;-75
2021/04/20 14:16:19;;;;;;;8.80;6.20;;;;;;;;;;5049694;28;20195;-71
2021/04/20 14:18:46;;;;;;;11.83;9.00;;;;;;;;;;5051387;28;20461;-71
2021/04/20 14:21:20;;;;;;;9.70;7.33;;;;;;;;;;5044344;28;20415;-72
2021/04/20 14:23:47;;;;;;;9.10;6.10;;;;;;;;;;5049164;28;20433;-71
2021/04/20 14:26:24;;;;;;;9.63;7.40;;;;;;;;;;5048940;28;20476;-73
2021/04/20 14:28:53;;;;;;;10.70;6.93;;;;;;;;;;5054181;28;20406;-72
2021/04/20 14:31:20;;;;;;;9.40;7.03;;;;;;;;;;5054575;28;20455;-70
2021/04/20 14:33:47;;;;;;;14.40;7.77;;;;;;;;;;5054056;28;20928;-71